METAR AND TAF INFORMATION
METAR FOR FAUP
ADDS - METARS form results

(0639 UTC 25 August 2019)
Data provider http://aviationweather.gov/metar/data/
 
METAR text: FAUP 250625Z 31003KT CAVOK 17/M07 Q1024 NOSIG
Conditions at: FAUP (UPINGTON/PIERRE , ZA) observed 0625 UTC 25 August 2019
Temperature: 17.0°C (63°F)
Dewpoint: -7.0°C (19°F) [RH = 19%]
Pressure (altimeter): 30.24 inches Hg (1024.0 mb)
Winds: from the NW (310 degrees) at 3 MPH (3 knots; 1.5 m/s)
Visibility: 6 or more miles (10+ km)
Ceiling: ceiling and visibility are OK
Clouds: unknown
Weather: no significant weather observed at this time

METAR text: FAUP 250600Z 29002KT CAVOK 14/M08 Q1024 NOSIG
Conditions at: FAUP (UPINGTON/PIERRE , ZA) observed 0600 UTC 25 August 2019
Temperature: 14.0°C (57°F)
Dewpoint: -8.0°C (18°F) [RH = 21%]
Pressure (altimeter): 30.24 inches Hg (1024.0 mb)
Winds: from the WNW (290 degrees) at 2 MPH (2 knots; 1.0 m/s)
Visibility: 6 or more miles (10+ km)
Ceiling: ceiling and visibility are OK
Clouds: unknown
Weather: no significant weather observed at this time

Forecast for: FAUP (UPINGTON/PIERRE , ZA)
Text: TAF FAUP 250400Z 2506/2606 34008KT CAVOK TX30/2513Z TN11/2605Z
Forecast period: 0600 UTC 25 August 2019 to 0600 UTC 26 August 2019
Forecast type: FROM: standard forecast or significant change
Winds: from the NNW (340 degrees) at 9 MPH (8 knots; 4.1 m/s)
Visibility: 6 or more miles 10+ km)
Ceiling: unknown
Clouds: missing
Weather: no significant weather forecast for this period

 AIRPORT MAP

 RUNWAY INFORMATION
Runway 08 Runway length 2736 ft Runway width 98 ft
Runway elevation 2748 ft Runway displaced threshold 0 ft Runway heading 59
Runway 26 Runway length 2736 ft Runway width 98 ft
Runway elevation 2753 ft Runway displaced threshold 0 ft Runway heading 239
Runway 17 Runway length 16076 ft Runway width 197 ft
Runway elevation 2782 ft Runway displaced threshold 0 ft Runway heading 153
Runway 35 Runway length 16076 ft Runway width 197 ft
Runway elevation 2711 ft Runway displaced threshold 0 ft Runway heading 333

 AIRPORT FREQUENCIES
Type APP Name APP Frequency 121.3 MHZ
Type MISC Name APRON OFFI Frequency 122.65 MHZ
Type TWR Name TWR Frequency 121.3 MHZ

 AIRPORT NEAR NAVIGATION AIDS
Type NDB Name Upington Frequency 344 KHZ
Type VOR-DME Name Upington Frequency 116500 KHZ



The South Africal Virtual Air Force